createdAt,value
2023-01-20T00:01:34.499Z,4.33
2023-01-20T00:04:02.767Z,4.40
2023-01-20T00:06:31.346Z,4.00
2023-01-20T00:09:01.710Z,4.73
2023-01-20T00:11:31.955Z,4.53
2023-01-20T00:14:01.843Z,4.93
2023-01-20T00:16:32.028Z,4.47
2023-01-20T00:19:00.346Z,3.80
2023-01-20T00:21:28.495Z,3.90
2023-01-20T00:23:57.064Z,4.47
2023-01-20T00:26:26.038Z,4.40
2023-01-20T00:28:57.694Z,4.00
2023-01-20T00:31:27.670Z,4.10
2023-01-20T00:33:57.453Z,3.83
2023-01-20T00:36:26.914Z,4.23
2023-01-20T00:38:55.149Z,4.73
2023-01-20T00:41:23.303Z,4.70
2023-01-20T00:43:51.532Z,3.87
2023-01-20T00:46:22.979Z,4.50
2023-01-20T00:48:51.229Z,4.07
2023-01-20T00:51:19.469Z,4.33
2023-01-20T00:53:47.623Z,4.37
2023-01-20T00:56:15.701Z,4.60
2023-01-20T00:58:45.066Z,4.47
2023-01-20T01:01:13.825Z,4.10
2023-01-20T01:03:43.384Z,4.87
2023-01-20T01:06:14.381Z,4.03
2023-01-20T01:08:42.740Z,3.73
2023-01-20T01:11:11.363Z,4.97
2023-01-20T01:13:39.879Z,4.30
2023-01-20T01:16:12.878Z,4.60
2023-01-20T01:18:43.200Z,4.00
2023-01-20T01:21:13.691Z,3.43
2023-01-20T01:23:41.881Z,4.20
2023-01-20T01:26:10.092Z,4.40
2023-01-20T01:28:38.340Z,4.07
2023-01-20T01:31:08.455Z,3.97
2023-01-20T01:33:37.220Z,4.13
2023-01-20T01:36:08.619Z,3.80
2023-01-20T01:38:36.811Z,3.80
2023-01-20T01:41:05.016Z,4.07
2023-01-20T01:43:36.269Z,3.40
2023-01-20T01:46:05.388Z,4.47
2023-01-20T01:48:37.925Z,3.90
2023-01-20T01:51:12.412Z,4.57
2023-01-20T01:53:44.050Z,3.60
2023-01-20T01:56:13.131Z,4.20
2023-01-20T01:58:45.918Z,3.60
2023-01-20T02:01:14.668Z,3.87
2023-01-20T02:03:50.568Z,3.43
2023-01-20T02:06:20.873Z,3.57
2023-01-20T02:08:49.871Z,3.83
2023-01-20T02:11:18.116Z,4.10
2023-01-20T02:13:46.407Z,3.67
2023-01-20T02:16:19.912Z,4.90
2023-01-20T02:19:01.558Z,4.03
2023-01-20T02:22:09.857Z,4.00
2023-01-20T02:25:18.014Z,3.60
2023-01-20T02:28:17.480Z,3.50
2023-01-20T02:30:59.800Z,3.50
2023-01-20T02:33:33.304Z,3.80
2023-01-20T02:36:07.583Z,3.23
2023-01-20T02:38:44.201Z,3.30
2023-01-20T02:41:18.621Z,3.60
2023-01-20T02:43:54.644Z,3.50
2023-01-20T02:46:26.635Z,3.53
2023-01-20T02:49:05.041Z,4.00
2023-01-20T02:51:40.864Z,3.70
2023-01-20T02:54:14.454Z,3.50
2023-01-20T02:56:43.340Z,3.83
2023-01-20T02:59:14.126Z,4.00
2023-01-20T03:01:48.293Z,3.43
2023-01-20T03:04:22.335Z,4.00
2023-01-20T03:06:55.675Z,3.10
2023-01-20T03:09:29.271Z,3.53
2023-01-20T03:12:02.198Z,3.50
2023-01-20T03:14:30.356Z,3.60
2023-01-20T03:16:58.472Z,3.70
2023-01-20T03:19:27.961Z,3.70
2023-01-20T03:21:56.074Z,2.83
2023-01-20T03:24:27.047Z,3.83
2023-01-20T03:26:55.728Z,3.40
2023-01-20T03:29:23.840Z,3.20
2023-01-20T03:31:55.867Z,3.10
2023-01-20T03:34:26.104Z,3.67
2023-01-20T03:36:56.762Z,3.40
2023-01-20T03:39:26.455Z,3.67
2023-01-20T03:42:02.917Z,4.10
2023-01-20T03:44:42.675Z,3.53
2023-01-20T03:47:18.973Z,4.10
2023-01-20T03:49:52.810Z,4.50
2023-01-20T03:52:47.926Z,3.43
2023-01-20T03:55:21.198Z,3.23
2023-01-20T03:57:55.967Z,3.63
2023-01-20T04:00:26.246Z,3.40
2023-01-20T04:02:59.734Z,3.73
2023-01-20T04:05:29.235Z,3.47
2023-01-20T04:08:03.470Z,3.57
2023-01-20T04:10:34.058Z,3.70
2023-01-20T04:13:02.172Z,3.67
2023-01-20T04:15:33.907Z,3.40
2023-01-20T04:18:13.248Z,3.00
2023-01-20T04:20:42.068Z,3.50
2023-01-20T04:23:17.803Z,3.47
2023-01-20T04:25:46.755Z,3.00
2023-01-20T04:28:14.927Z,2.80
2023-01-20T04:30:43.116Z,3.20
2023-01-20T04:33:11.257Z,3.00
2023-01-20T04:35:39.368Z,3.00
2023-01-20T04:38:07.540Z,3.27
2023-01-20T04:40:37.142Z,3.20
2023-01-20T04:43:05.403Z,3.03
2023-01-20T04:45:33.541Z,3.20
2023-01-20T04:48:01.666Z,3.13
2023-01-20T04:50:29.790Z,3.10
2023-01-20T04:53:00.515Z,3.03
2023-01-20T04:55:29.047Z,2.80
2023-01-20T04:57:58.509Z,3.23
2023-01-20T05:00:26.589Z,2.47
2023-01-20T05:02:57.401Z,2.93
2023-01-20T05:05:25.520Z,2.40
2023-01-20T05:07:55.042Z,3.00
2023-01-20T05:10:23.187Z,2.73
2023-01-20T05:12:51.317Z,2.80
2023-01-20T05:15:20.786Z,3.03
2023-01-20T05:17:48.958Z,2.97
2023-01-20T05:20:18.993Z,2.80
2023-01-20T05:22:47.153Z,3.00
2023-01-20T05:25:15.925Z,2.50
2023-01-20T05:27:44.995Z,2.50
2023-01-20T05:30:13.687Z,2.63
2023-01-20T05:32:43.335Z,2.70
2023-01-20T05:35:11.902Z,2.93
2023-01-20T05:37:40.089Z,2.43
2023-01-20T05:40:09.523Z,2.50
2023-01-20T05:42:37.657Z,3.17
2023-01-20T05:45:07.067Z,2.50
2023-01-20T05:47:35.260Z,2.60
2023-01-20T05:50:04.810Z,2.70
2023-01-20T05:52:33.247Z,2.63
2023-01-20T05:55:01.380Z,2.83
2023-01-20T05:57:29.589Z,2.50
2023-01-20T05:59:57.660Z,2.57
2023-01-20T06:02:25.862Z,2.80
2023-01-20T06:04:56.040Z,2.30
2023-01-20T06:07:25.585Z,2.60
2023-01-20T06:09:53.701Z,2.97
2023-01-20T06:12:21.870Z,3.20
2023-01-20T06:14:50.045Z,2.53
2023-01-20T06:17:18.348Z,3.20
2023-01-20T06:19:46.582Z,2.60
2023-01-20T06:22:15.947Z,3.03
2023-01-20T06:24:45.474Z,3.10
2023-01-20T06:27:13.874Z,2.80
2023-01-20T06:29:42.051Z,2.40
2023-01-20T06:32:10.173Z,2.60
2023-01-20T06:34:38.409Z,2.57
2023-01-20T06:37:06.487Z,2.37
2023-01-20T06:39:34.607Z,2.40
2023-01-20T06:42:04.128Z,2.40
2023-01-20T06:44:33.835Z,2.80
2023-01-20T06:47:01.948Z,2.10
2023-01-20T06:49:30.120Z,2.13
2023-01-20T06:51:58.245Z,2.53
2023-01-20T06:54:27.194Z,2.77
2023-01-20T06:56:55.352Z,2.40
2023-01-20T06:59:24.893Z,2.27
2023-01-20T07:01:53.852Z,2.47
2023-01-20T07:04:22.040Z,3.10
2023-01-20T07:06:50.245Z,2.50
2023-01-20T07:09:18.377Z,2.40
2023-01-20T07:11:46.490Z,2.60
2023-01-20T07:14:14.636Z,2.50
2023-01-20T07:16:44.169Z,3.20
2023-01-20T07:19:13.222Z,3.07
2023-01-20T07:21:41.446Z,3.50
2023-01-20T07:24:10.776Z,3.10
2023-01-20T07:26:38.946Z,3.20
2023-01-20T07:29:07.125Z,2.90
2023-01-20T07:31:35.360Z,2.90
2023-01-20T07:34:04.961Z,3.13
2023-01-20T07:36:33.107Z,3.20
2023-01-20T07:39:01.219Z,2.50
2023-01-20T07:41:29.392Z,3.23
2023-01-20T07:43:57.803Z,3.40
2023-01-20T07:46:25.927Z,3.60
2023-01-20T07:48:54.116Z,3.10
2023-01-20T07:51:23.650Z,3.00
2023-01-20T07:53:52.308Z,2.30
2023-01-20T07:56:23.369Z,2.93
2023-01-20T07:58:51.652Z,2.93
2023-01-20T08:01:21.770Z,3.20
2023-01-20T08:03:50.208Z,3.60
2023-01-20T08:06:20.613Z,3.23
2023-01-20T08:08:50.544Z,2.83
2023-01-20T08:11:21.403Z,2.63
2023-01-20T08:13:49.926Z,2.67
2023-01-20T08:16:19.938Z,2.67
2023-01-20T08:18:48.407Z,2.97
2023-01-20T08:21:21.580Z,2.37
2023-01-20T08:23:51.216Z,2.53
2023-01-20T08:26:19.869Z,2.57
2023-01-20T08:28:48.506Z,3.30
2023-01-20T08:31:19.790Z,2.53
2023-01-20T08:33:48.522Z,3.23
2023-01-20T08:36:18.556Z,2.77
2023-01-20T08:38:47.446Z,2.30
2023-01-20T08:41:19.174Z,2.57
2023-01-20T08:43:47.629Z,2.40
2023-01-20T08:46:17.738Z,2.40
2023-01-20T08:48:46.601Z,3.17
2023-01-20T08:51:16.922Z,3.13
2023-01-20T08:53:45.643Z,2.53
2023-01-20T08:56:14.811Z,2.63
2023-01-20T08:58:44.920Z,2.57
2023-01-20T09:01:14.721Z,1.80
2023-01-20T09:03:49.375Z,2.13
2023-01-20T09:06:27.807Z,2.73
2023-01-20T09:08:56.157Z,3.47
2023-01-20T09:11:26.241Z,2.20
2023-01-20T09:13:57.211Z,2.60
2023-01-20T09:16:25.437Z,2.77
2023-01-20T09:18:53.574Z,2.73
2023-01-20T09:21:21.705Z,2.87
2023-01-20T09:23:49.907Z,2.53
2023-01-20T09:26:34.420Z,2.90
2023-01-20T09:29:09.543Z,2.80
2023-01-20T09:31:39.526Z,2.30
2023-01-20T09:34:07.958Z,2.23
2023-01-20T09:36:36.099Z,2.70
2023-01-20T09:39:21.996Z,2.70
2023-01-20T09:42:14.070Z,2.43
2023-01-20T09:44:50.360Z,2.57
2023-01-20T09:47:30.768Z,3.10
2023-01-20T09:50:47.574Z,3.03
2023-01-20T09:53:32.733Z,2.37
2023-01-20T09:56:08.337Z,2.67
2023-01-20T09:58:41.899Z,2.80
2023-01-20T10:01:18.115Z,3.00
2023-01-20T10:03:53.888Z,2.80
2023-01-20T10:06:26.537Z,2.47
2023-01-20T10:09:05.886Z,2.63
2023-01-20T10:11:39.198Z,2.87
2023-01-20T10:14:12.370Z,2.87
2023-01-20T10:16:46.416Z,3.07
2023-01-20T10:19:19.572Z,2.95
2023-01-20T10:21:54.053Z,2.70
2023-01-20T10:24:25.537Z,2.50
2023-01-20T10:26:57.225Z,2.50
2023-01-20T10:29:31.550Z,2.30
2023-01-20T10:32:03.206Z,2.60
2023-01-20T10:34:41.461Z,3.20
2023-01-20T10:37:12.593Z,2.67
2023-01-20T10:39:47.216Z,2.40
2023-01-20T10:42:17.882Z,2.73
2023-01-20T10:44:48.192Z,3.40
2023-01-20T10:47:42.377Z,2.90
2023-01-20T10:50:34.486Z,3.07
2023-01-20T10:53:22.343Z,3.27
2023-01-20T10:56:03.410Z,2.70
2023-01-20T10:58:34.747Z,2.90
2023-01-20T11:01:06.928Z,2.50
2023-01-20T11:03:40.499Z,2.27
2023-01-20T11:06:12.120Z,2.20
2023-01-20T11:08:40.248Z,2.63
2023-01-20T11:11:12.966Z,2.83
2023-01-20T11:13:41.177Z,2.77
2023-01-20T11:16:15.237Z,2.50
2023-01-20T11:18:55.217Z,2.70
2023-01-20T11:21:26.095Z,2.50
2023-01-20T11:23:57.325Z,2.30
2023-01-20T11:26:28.370Z,2.70
2023-01-20T11:28:59.081Z,2.93
2023-01-20T11:31:42.487Z,2.57
2023-01-20T11:34:25.445Z,2.87
2023-01-20T11:37:17.653Z,2.60
2023-01-20T11:40:00.194Z,2.83
2023-01-20T11:42:29.730Z,2.80
2023-01-20T11:45:15.303Z,2.50
2023-01-20T11:47:59.552Z,2.47
2023-01-20T11:50:33.387Z,3.13
2023-01-20T11:53:18.744Z,2.80
2023-01-20T11:55:52.819Z,4.37
2023-01-20T11:58:23.055Z,4.50
2023-01-20T12:00:53.238Z,4.10
2023-01-20T12:04:04.495Z,5.00
2023-01-20T12:06:39.162Z,5.00
2023-01-20T12:09:11.731Z,5.13
2023-01-20T12:11:43.924Z,4.77
2023-01-20T12:14:28.579Z,4.90
2023-01-20T12:17:14.394Z,4.77
2023-01-20T12:19:56.791Z,4.30
2023-01-20T12:22:32.990Z,4.37
2023-01-20T12:25:14.593Z,4.33
2023-01-20T12:27:47.767Z,3.87
2023-01-20T12:30:37.406Z,5.17
2023-01-20T12:33:06.320Z,4.30
2023-01-20T12:35:43.192Z,4.40
2023-01-20T12:38:19.946Z,4.87
2023-01-20T12:40:50.682Z,4.57
2023-01-20T12:43:39.194Z,4.00
2023-01-20T12:46:36.795Z,4.90
2023-01-20T12:49:35.078Z,4.73
2023-01-20T12:52:36.863Z,4.20
2023-01-20T12:55:24.088Z,4.03
2023-01-20T12:58:04.670Z,3.90
2023-01-20T13:00:55.133Z,4.30
2023-01-20T13:03:40.043Z,4.97
2023-01-20T13:06:29.503Z,4.57
2023-01-20T13:09:08.301Z,4.33
2023-01-20T13:11:51.058Z,4.30
2023-01-20T13:14:22.614Z,4.10
2023-01-20T13:16:58.466Z,3.80
2023-01-20T13:19:31.586Z,4.10
2023-01-20T13:22:11.019Z,4.50
2023-01-20T13:24:42.794Z,4.03
2023-01-20T13:27:13.930Z,3.90
2023-01-20T13:29:44.651Z,4.60
2023-01-20T13:32:33.777Z,4.20
2023-01-20T13:35:03.795Z,4.10
2023-01-20T13:37:34.995Z,3.87
2023-01-20T13:40:03.796Z,4.67
2023-01-20T13:42:52.305Z,4.00
2023-01-20T13:45:23.609Z,3.90
2023-01-20T13:48:03.857Z,4.30
2023-01-20T13:50:34.244Z,4.10
2023-01-20T13:53:28.390Z,4.23
2023-01-20T13:56:33.237Z,4.37
2023-01-20T13:59:02.750Z,4.17
2023-01-20T14:01:30.960Z,3.83
2023-01-20T14:04:04.215Z,4.40
2023-01-20T14:06:34.101Z,4.53
2023-01-20T14:09:02.859Z,3.40
2023-01-20T14:11:31.542Z,4.60
2023-01-20T14:14:02.992Z,3.60
2023-01-20T14:16:37.786Z,3.93
2023-01-20T14:19:22.613Z,4.10
2023-01-20T14:21:54.041Z,3.80
2023-01-20T14:24:29.424Z,3.90
2023-01-20T14:27:07.957Z,3.80
2023-01-20T14:29:37.436Z,3.50
2023-01-20T14:32:22.028Z,3.40
2023-01-20T14:34:50.630Z,3.97
2023-01-20T14:37:26.146Z,3.50
2023-01-20T14:39:56.841Z,3.67
2023-01-20T14:42:26.358Z,3.83
2023-01-20T14:44:57.404Z,3.30
2023-01-20T14:47:27.176Z,3.67
2023-01-20T14:49:56.219Z,3.57
2023-01-20T14:52:29.822Z,3.83
2023-01-20T14:54:58.634Z,3.50
2023-01-20T14:57:30.133Z,3.30
2023-01-20T15:00:25.603Z,3.20
2023-01-20T15:03:10.334Z,3.53
2023-01-20T15:05:41.767Z,3.80
2023-01-20T15:08:26.400Z,3.37
2023-01-20T15:11:31.276Z,3.63
2023-01-20T15:14:13.629Z,3.17
2023-01-20T15:16:49.309Z,3.17
2023-01-20T15:19:36.854Z,3.43
2023-01-20T15:22:22.836Z,3.00
2023-01-20T15:24:51.544Z,2.50
2023-01-20T15:27:26.750Z,3.70
2023-01-20T15:30:21.139Z,3.17
2023-01-20T15:32:52.106Z,3.53
2023-01-20T15:35:25.576Z,3.03
2023-01-20T15:37:55.159Z,3.13
2023-01-20T15:40:24.660Z,3.00
2023-01-20T15:42:54.882Z,2.80
2023-01-20T15:45:23.033Z,3.37
2023-01-20T15:47:53.866Z,3.00
2023-01-20T15:50:24.248Z,3.13
2023-01-20T15:52:52.464Z,3.57
2023-01-20T15:55:20.856Z,2.80
2023-01-20T15:57:52.699Z,2.90
2023-01-20T16:00:23.294Z,3.47
2023-01-20T16:02:52.994Z,2.53
2023-01-20T16:05:21.366Z,3.13
2023-01-20T16:07:50.341Z,2.87
2023-01-20T16:10:20.173Z,2.80
2023-01-20T16:12:48.857Z,2.73
2023-01-20T16:15:19.158Z,3.00
2023-01-20T16:17:47.356Z,3.23
2023-01-20T16:20:20.760Z,3.03
2023-01-20T16:22:48.932Z,3.20
2023-01-20T16:25:18.002Z,3.10
2023-01-20T16:27:46.314Z,2.67
2023-01-20T16:30:18.381Z,3.10
2023-01-20T16:32:47.181Z,2.73
2023-01-20T16:35:16.552Z,2.40
2023-01-20T16:37:47.592Z,2.33
2023-01-20T16:40:17.648Z,2.70
2023-01-20T16:42:46.465Z,2.73
2023-01-20T16:45:27.338Z,3.60
2023-01-20T16:47:57.180Z,2.40
2023-01-20T16:50:28.201Z,2.90
2023-01-20T16:52:58.495Z,2.80
2023-01-20T16:55:27.326Z,3.20
2023-01-20T16:57:56.127Z,3.37
2023-01-20T17:00:25.220Z,2.83
2023-01-20T17:02:54.589Z,2.63
2023-01-20T17:05:25.667Z,2.80
2023-01-20T17:07:54.692Z,2.30
2023-01-20T17:10:25.318Z,2.87
2023-01-20T17:12:54.204Z,3.40
2023-01-20T17:15:22.893Z,2.27
2023-01-20T17:17:51.725Z,2.43
2023-01-20T17:20:19.985Z,3.30
2023-01-20T17:22:48.280Z,2.43
2023-01-20T17:25:18.157Z,2.67
2023-01-20T17:27:47.679Z,2.43
2023-01-20T17:30:18.442Z,2.23
2023-01-20T17:32:48.594Z,2.83
2023-01-20T17:35:17.377Z,2.83
2023-01-20T17:37:45.696Z,3.00
2023-01-20T17:40:14.997Z,2.50
2023-01-20T17:42:46.404Z,2.73
2023-01-20T17:45:16.109Z,2.97
2023-01-20T17:47:44.259Z,2.37
2023-01-20T17:50:12.685Z,3.00
2023-01-20T17:52:41.007Z,2.80
2023-01-20T17:55:09.731Z,2.67
2023-01-20T17:57:37.908Z,2.57
2023-01-20T18:00:07.174Z,2.83
2023-01-20T18:02:37.000Z,3.00
2023-01-20T18:05:05.959Z,2.77
2023-01-20T18:07:34.134Z,2.50
2023-01-20T18:10:02.292Z,3.07
2023-01-20T18:12:30.789Z,2.60
2023-01-20T18:14:59.324Z,2.57
2023-01-20T18:17:27.446Z,2.30
2023-01-20T18:19:57.108Z,2.60
2023-01-20T18:22:25.336Z,2.47
2023-01-20T18:24:53.520Z,2.80
2023-01-20T18:27:22.656Z,2.80
2023-01-20T18:29:51.533Z,3.00
2023-01-20T18:32:19.698Z,2.20
2023-01-20T18:34:47.845Z,2.60
2023-01-20T18:37:17.349Z,2.30
2023-01-20T18:39:45.507Z,2.20
2023-01-20T18:42:13.660Z,2.57
2023-01-20T18:44:41.785Z,2.00
2023-01-20T18:47:09.997Z,2.30
2023-01-20T18:49:38.081Z,2.33
2023-01-20T18:52:06.442Z,2.80
2023-01-20T18:54:38.413Z,2.60
2023-01-20T18:57:08.933Z,2.43
2023-01-20T18:59:37.315Z,2.47
2023-01-20T19:02:05.494Z,2.83
2023-01-20T19:04:35.577Z,2.70
2023-01-20T19:07:03.851Z,2.50
2023-01-20T19:09:32.102Z,2.40
2023-01-20T19:12:01.724Z,2.70
2023-01-20T19:14:29.912Z,1.70
2023-01-20T19:16:58.074Z,2.80
2023-01-20T19:19:26.201Z,2.40
2023-01-20T19:21:54.310Z,2.30
2023-01-20T19:24:27.218Z,2.27
2023-01-20T19:26:55.556Z,2.40
2023-01-20T19:29:28.347Z,2.33
2023-01-20T19:31:57.571Z,2.40
2023-01-20T19:34:26.642Z,2.23
2023-01-20T19:36:54.783Z,2.70
2023-01-20T19:39:22.870Z,2.53
2023-01-20T19:41:51.105Z,2.40
2023-01-20T19:44:19.304Z,2.20
2023-01-20T19:46:48.810Z,2.73
2023-01-20T19:49:16.879Z,1.97
2023-01-20T19:51:51.024Z,1.90
2023-01-20T19:54:19.380Z,2.27
2023-01-20T19:56:47.756Z,2.10
2023-01-20T19:59:15.887Z,2.70
2023-01-20T20:01:44.062Z,2.40
2023-01-20T20:04:14.069Z,2.40
2023-01-20T20:06:47.788Z,2.37
2023-01-20T20:09:18.913Z,1.77
2023-01-20T20:11:47.205Z,2.10
2023-01-20T20:14:17.625Z,2.40
2023-01-20T20:16:45.862Z,1.77
2023-01-20T20:19:17.980Z,1.77
2023-01-20T20:21:46.652Z,2.23
2023-01-20T20:24:16.728Z,2.27
2023-01-20T20:26:46.258Z,2.20
2023-01-20T20:29:16.219Z,2.30
2023-01-20T20:31:44.612Z,2.43
2023-01-20T20:34:16.701Z,2.13
2023-01-20T20:36:45.291Z,2.13
2023-01-20T20:39:15.845Z,2.20
2023-01-20T20:41:44.480Z,2.17
2023-01-20T20:44:13.230Z,1.90
2023-01-20T20:46:41.494Z,2.33
2023-01-20T20:49:16.533Z,2.37
2023-01-20T20:51:45.205Z,1.97
2023-01-20T20:54:16.731Z,2.00
2023-01-20T20:56:45.126Z,2.47
2023-01-20T20:59:13.349Z,2.67
2023-01-20T21:01:41.492Z,2.17
2023-01-20T21:04:11.521Z,2.10
2023-01-20T21:06:41.062Z,2.33
2023-01-20T21:09:09.943Z,2.30
2023-01-20T21:11:38.864Z,2.20
2023-01-20T21:14:07.567Z,2.00
2023-01-20T21:16:35.828Z,2.37
2023-01-20T21:19:05.108Z,1.97
2023-01-20T21:21:33.417Z,2.00
2023-01-20T21:24:03.047Z,2.40
2023-01-20T21:26:31.272Z,2.00
2023-01-20T21:29:01.840Z,2.23
2023-01-20T21:31:31.325Z,2.20
2023-01-20T21:34:00.786Z,2.27
2023-01-20T21:36:29.871Z,2.03
2023-01-20T21:38:59.693Z,1.90
2023-01-20T21:41:29.187Z,2.10
2023-01-20T21:44:14.670Z,1.90
2023-01-20T21:46:42.809Z,2.13
2023-01-20T21:49:28.356Z,2.30
2023-01-20T21:52:14.294Z,2.30
2023-01-20T21:54:44.869Z,2.30
2023-01-20T21:57:15.042Z,2.10
2023-01-20T21:59:45.660Z,1.97
2023-01-20T22:02:14.207Z,2.03
2023-01-20T22:04:42.576Z,2.70
2023-01-20T22:07:11.328Z,1.73
2023-01-20T22:09:39.801Z,2.20
2023-01-20T22:12:08.272Z,2.00
2023-01-20T22:14:38.017Z,2.20
2023-01-20T22:17:06.535Z,1.90
2023-01-20T22:19:34.940Z,1.63
2023-01-20T22:22:03.452Z,1.87
2023-01-20T22:24:32.063Z,2.50
2023-01-20T22:27:00.404Z,2.13
2023-01-20T22:29:28.922Z,2.00
2023-01-20T22:32:02.259Z,1.93
2023-01-20T22:34:30.841Z,2.20
2023-01-20T22:37:00.714Z,2.57
2023-01-20T22:39:29.450Z,2.17
2023-01-20T22:41:57.804Z,1.90
2023-01-20T22:44:25.908Z,1.80
2023-01-20T22:46:54.072Z,1.73
2023-01-20T22:49:23.574Z,2.13
2023-01-20T22:51:52.126Z,2.47
2023-01-20T22:54:20.334Z,2.07
2023-01-20T22:56:48.505Z,1.73
2023-01-20T22:59:16.823Z,2.30
2023-01-20T23:01:44.993Z,1.93
2023-01-20T23:04:13.224Z,2.10
2023-01-20T23:06:42.720Z,2.07
2023-01-20T23:09:14.424Z,2.40
2023-01-20T23:11:42.920Z,2.10
2023-01-20T23:14:13.402Z,1.60
2023-01-20T23:16:42.625Z,1.87
2023-01-20T23:19:11.491Z,2.30
2023-01-20T23:21:39.715Z,2.13
2023-01-20T23:24:10.129Z,2.10
2023-01-20T23:26:38.290Z,2.13
2023-01-20T23:29:06.596Z,2.27
2023-01-20T23:31:35.316Z,2.20
2023-01-20T23:34:03.651Z,1.80
2023-01-20T23:36:31.993Z,2.30
2023-01-20T23:39:00.156Z,2.00
2023-01-20T23:41:29.667Z,2.53
2023-01-20T23:43:57.850Z,1.77
2023-01-20T23:46:25.955Z,1.90
2023-01-20T23:48:54.075Z,1.93
2023-01-20T23:51:22.243Z,1.93
2023-01-20T23:53:50.394Z,2.37
2023-01-20T23:56:20.743Z,2.00
2023-01-20T23:58:50.606Z,2.07
